• Join FlightAware (Why Join?)
  • Login
  • US Flag 
11:14PM EST


 

Airport Tracker/Info


-or-


 

Live Flight TrackerFlight Track Log ✈ WIG7413 ✈ 27-Feb-2014 ✈ KALB - KEWR

Flight Track Log - Related Links

Times and Time Zones

All times are in EST time to prevent confusion due to time zone crossing. See the WIG7413 flight status page for this flight to view local times or setup timezone preferences in your user account.

Time Position Orientation Groundspeed Altitude Reporting Facility
EST Latitude Longitude Course Direction KTS MPH feet Rate Location/Type
10:23PM 42.7486 -73.8053 304° West 68 78 1,000  Level Boston Center
10:23PM 42.7503 -73.8086 304° West 76 87 1,200 1,380 Climbing Boston Center
10:24PM 42.7436 -73.8381 253° West 79 91 2,700 1,200 Climbing Boston Center
10:25PM 42.7208 -73.8550 209° Southwest 92 106 3,800 1,140 Climbing Boston Center
10:26PM 42.6956 -73.8717 206° Southwest 105 121 5,000 1,200 Climbing Boston Center
10:26PM 42.6944 -73.8714 170° South 106 122 5,000 1,140 Level Boston Center
10:27PM 42.6644 -73.8903 205° Southwest 114 131 6,200 1,140 Climbing Boston Center
10:27PM 42.6642 -73.8911 246° West 112 129 6,200 960 Level Boston Center
10:28PM 42.6328 -73.9136 208° Southwest 125 144 7,300 1,140 Climbing Boston Center
10:28PM 42.6319 -73.9142 206° Southwest 127 146 7,400 540 Climbing Boston Center
10:29PM 42.5983 -73.9364 206° Southwest 137 158 7,900 540 Climbing Boston Center
10:29PM 42.5975 -73.9375 224° Southwest 137 158 8,000 60 Climbing Boston Center
10:30PM 42.5592 -73.9622 205° Southwest 154 177 8,000 60 Level Boston Center
10:30PM 42.5536 -73.9661 207° Southwest 162 186 8,100  Climbing Boston Center
10:31PM 42.5186 -73.9903 207° Southwest 162 186 8,000  Descending Boston Center
10:31PM 42.5117 -73.9953 208° Southwest 164 189 8,100  Climbing Boston Center
10:32PM 42.4697 -74.0247 207° Southwest 165 190 8,000 -60 Descending Boston Center
10:33PM 42.4375 -74.0458 206° Southwest 162 186 8,000 60 Level Boston Center
10:33PM 42.4303 -74.0519 212° Southwest 163 188 8,100  Climbing Boston Center
10:34PM 42.3961 -74.0733 205° Southwest 165 190 8,000  Descending Boston Center
10:34PM 42.3886 -74.0783 206° Southwest 163 188 8,100  Climbing Boston Center
10:35PM 42.3558 -74.1008 207° Southwest 162 186 8,000 -120 Descending Boston Center
10:36PM 42.3153 -74.1286 207° Southwest 158 182 7,900  Descending Boston Center
10:37PM 42.2764 -74.1542 206° Southwest 156 180 8,000  Climbing Boston Center
10:38PM 42.2361 -74.1839 209° Southwest 162 186 8,000 -60 Level Boston Center
10:39PM 42.1956 -74.2103 206° Southwest 163 188 7,900  Descending Boston Center
10:40PM 42.1569 -74.2400 210° Southwest 162 186 8,000  Climbing Boston Center
10:41PM 42.1169 -74.2697 209° Southwest 154 177 7,900  Descending Boston Center
10:42PM 42.0794 -74.2958 207° Southwest 153 176 8,000 60 Climbing Boston Center
10:43PM 42.0417 -74.3239 209° Southwest 155 178 8,100  Climbing Boston Center
10:44PM 42.0056 -74.3508 209° Southwest 149 171 8,000  Descending Boston Center
10:45PM 41.9706 -74.3725 205° Southwest 140 161 8,100  Climbing Boston Center
10:46PM 41.9322 -74.3911 200° South 145 167 8,100 -60 Level Boston Center
10:47PM 41.8928 -74.4128 202° Southwest 153 176 8,000 -60 Descending Boston Center
10:48PM 41.8467 -74.4383 202° Southwest 164 189 8,000  Level Boston Center
10:49PM 41.8036 -74.4583 199° South 163 188 8,100  Climbing Boston Center
10:50PM 41.7628 -74.4797 201° Southwest 158 182 8,000 -180 Descending Boston Center
10:51PM 41.7208 -74.5017 201° Southwest 162 186 7,800 -300 Descending Boston Center
10:52PM 41.6769 -74.5247 201° Southwest 168 193 7,400 -360 Descending Boston Center
10:53PM 41.6311 -74.5486 201° Southwest 176 203 7,100 -420 Descending Boston Center
10:54PM 41.5803 -74.5583 188° South 186 214 6,600 -540 Descending Boston Center
10:55PM 41.5233 -74.5714 190° South 193 222 6,100 -300 Descending Boston Center
10:56PM 41.4717 -74.5806 188° South 189 217 6,100  Level Boston Center
10:57PM 41.4225 -74.5897 188° South 180 207 6,100 -60 Level Boston Center
10:58PM 41.3742 -74.6056 194° South 180 207 6,000 -120 Descending Boston Center
10:59PM 41.3272 -74.6233 196° South 177 204 5,900  Descending Boston Center
11:00PM 41.2772 -74.6242 181° South 185 213 6,000  Climbing Boston Center
11:01PM 41.2250 -74.6094 168° South 192 221 6,000 -180 Level Boston Center
11:02PM 41.1747 -74.5972 170° South 185 213 5,700 -540 Descending Boston Center
11:03PM 41.1178 -74.5839 170° South 192 221 5,000 -720 Descending Boston Center
11:04PM 41.0667 -74.5667 166° South 188 216 4,200 -540 Descending New York TRACON
11:05PM 41.0167 -74.5500 166° South 182 209 4,000 -180 Descending New York TRACON
11:06PM 40.9667 -74.5500 180° South 177 204 3,900  Descending New York TRACON
11:07PM 40.9167 -74.5333 166° South 177 204 4,000 -120 Climbing New York TRACON
11:08PM 40.8667 -74.5167 166° South 177 204 3,700 -480 Descending New York TRACON
11:09PM 40.8167 -74.5000 166° South 182 209 3,000 -420 Descending New York TRACON
11:10PM 40.7667 -74.5000 180° South 170 196 2,900  Descending New York TRACON
11:11PM 40.7167 -74.5000 180° South 167 192 3,000  Climbing New York TRACON
11:12PM 40.6833 -74.4833 159° South 165 190 2,900 -60 Descending New York TRACON
11:13PM 40.6333 -74.5000 194° South 162 186 2,900  Level New York TRACON
11:14PM 40.5833 -74.5000 180° South 165 190 2,900  Level New York TRACON
11:15PM 40.5333 -74.5000 180° South 163 188 2,900  Level New York TRACON
11:16PM 40.5000 -74.4500 131° Southeast 176 203 3,000  Climbing New York TRACON
11:17PM 40.5000 -74.4000 90° East 175 201 2,900  Descending New York TRACON
11:18PM 40.5000 -74.3333 90° East 179 206 3,000  Climbing New York TRACON
11:19PM 40.5167 -74.2833 66° East 161 185 2,900 -360 Descending New York TRACON
11:20PM 40.5667 -74.2500 27° Northeast 162 186 2,300 -660 Descending New York TRACON
11:21PM 40.6000 -74.2167 37° Northeast 159 183 1,600 -600 Descending New York TRACON
11:22PM 40.6333 -74.2000 21° North 153 176 1,100 -540 Descending New York TRACON